Rancho Cordova, CA (95670)

10:39 PM PDT on September 01, 2014 (GMT -0700)
AMPAC Fine Chemicals | Change Station
CLOSE
Current Station
Personal Weather Station
Location: Rancho Cordova, CA
Elevation: 174 ft
Nearby Weather Stations

Elev 174 ft 38.61 °N, 121.22 °W | Updated 3 seconds ago

Clear
Clear
76.3 °F
Feels Like 78 °F
N
2.5
Wind Variable Wind from SE
Gusts 4.7 mph

Today
High -- | Low -- °F
--% Chance of Precip.
Yesterday
High -- | Low -- °F
Precip. -- in
6:34 AM 7:34 PM
Waxing Crescent, 48% visible
Pressure 29.72 in
Visibility 10.0 miles
Clouds Clear
Heat Index 78 °F
Dew Point 49 °F
Humidity 38%
Rainfall 0.00 in
Snow Depth Not available.
UV 0 out of 12
Pollen 9.40 out of 12
Ozone Good
PM2.5 Moderate
Flu Activity Not available.
METAR KMHR 020455Z 21005KT 10SM SKC 25/10 A2972

More Conditions Fewer Conditions

Pressure 29.72 in
Visibility 10.0 miles
Clouds Clear
Heat Index 78 °F
Dew Point 49 °F
Humidity 38%
Rainfall 0.00 in
Snow Depth Not available.
UV 0 out of 12
Pollen 9.40 out of 12
Ozone Good
PM2.5 Moderate
Flu Activity Not available.
METAR KMHR 020455Z 21005KT 10SM SKC 25/10 A2972

More Conditions Fewer Conditions

10-Day Weather Forecast

Almanac

Astronomy

Sep. 01, 2014 Rise Set
Actual Time 6:34 AM PDT 7:34 PM PDT
Civil Twilight 6:07 AM PDT 8:01 PM PDT
Nautical Twilight 5:34 AM PDT 8:34 PM PDT
Astronomical Twilight 5:01 AM PDT 9:07 PM PDT
Moon 1:20 PM PDT (9/1) 11:45 PM PDT (9/1)
Length of Visible Light 13h 54m
Length of Day
13h 00m
Tomorrow will be 2m 24s shorter.
Waxing Crescent, 48% of the Moon is Illuminated
Sep 2
Waxing Crescent
Sep 2
First Quarter
Sep 8
Full
Sep 15
Last Quarter
Sep 24
New

Yesterday's Extremes

State Highs State Lows

Community

WunderPhotos

Upload Photos

1,749,579 photos uploaded!

WunderBlogs® & News

Nearby

Air Quality

  Air Quality AQ Index Pollutant
Yesterday Good
OZONE
Yesterday Good
PM10
Current Moderate
PM2.5
Current Good
OZONE
Monday Unhealthy for Sensitive Groups
OZONE
Tuesday Moderate
OZONE
Wednesday Moderate
OZONE
Thursday Moderate
OZONE
Friday Good
OZONE
Saturday Good
OZONE

Snow Depth

Station Depth Elevation
Echo Peak 0 in 7800 ft
Rubicon #2 0 in 7500 ft
CSS Lab 2 in 6900 ft
Forestdale Creek 0 in 8029 ft
Tahoe City Cross 0 in 6750 ft

Earthquake Activity

City Distance Mag. Time & Date
Yountville, California 64 miles 2.6 1:15 PM PDT
2014-09-01
Gilroy, California 112 miles 3.5 9:10 AM PDT
2014-09-01
Green Valley, California 55 miles 2.5 6:37 AM PDT
2014-08-31
Napa, California 64 miles 3.2 1:56 AM PDT
2014-08-31
Minimum magnitude displayed is 2.5.

Coastal Water Temperatures

Place Temperature
No Stations Reporting

Nearby Weather Stations